Time;durP1;ratioP1;P1;durP2;ratioP2;P2;SDS_P1;SDS_P2;PMS_P1;PMS_P2;Temp;Humidity;BMP_temperature;BMP_pressure;BME280_temperature;BME280_humidity;BME280_pressure;Samples;Min_cycle;Max_cycle;Signal;HPM_P1;HPM_P2
2021/04/10 00:00:15;;;;;;;8.73;7.93;;;8.00;99.90;;;;;;6152552;23;20017;-89
2021/04/10 00:02:41;;;;;;;9.13;8.32;;;8.00;99.90;;;;;;6153316;23;20446;-89
2021/04/10 00:05:09;;;;;;;10.20;8.23;;;8.00;99.90;;;;;;6152238;23;20017;-89
2021/04/10 00:07:35;;;;;;;8.68;7.88;;;8.00;99.90;;;;;;6154040;23;20019;-89
2021/04/10 00:10:06;;;;;;;9.23;8.32;;;7.90;99.90;;;;;;6155109;23;20824;-89
2021/04/10 00:12:32;;;;;;;9.70;8.70;;;7.90;99.90;;;;;;6153304;23;20024;-89
2021/04/10 00:14:59;;;;;;;8.05;7.25;;;7.90;99.90;;;;;;6153333;23;20021;-89
2021/04/10 00:17:26;;;;;;;8.43;7.63;;;7.80;99.90;;;;;;6151221;23;20021;-88
2021/04/10 00:19:53;;;;;;;11.05;8.38;;;7.80;99.90;;;;;;6152901;23;20047;-88
2021/04/10 00:22:19;;;;;;;8.70;7.80;;;7.70;99.90;;;;;;6153701;23;20101;-89
2021/04/10 00:24:46;;;;;;;7.93;7.13;;;7.70;99.90;;;;;;6153410;23;20017;-88
2021/04/10 00:27:12;;;;;;;8.23;7.43;;;7.70;99.90;;;;;;6153348;23;20028;-88
2021/04/10 00:29:39;;;;;;;8.15;7.38;;;7.60;99.90;;;;;;6154213;23;20021;-89
2021/04/10 00:32:06;;;;;;;8.40;7.20;;;7.60;99.90;;;;;;6154171;23;20021;-88
2021/04/10 00:34:33;;;;;;;8.63;7.78;;;7.60;99.90;;;;;;6162351;23;20021;-88
2021/04/10 00:37:00;;;;;;;8.25;7.47;;;7.50;99.90;;;;;;6161384;23;20021;-88
2021/04/10 00:39:27;;;;;;;7.15;6.45;;;7.50;99.90;;;;;;6153676;23;20040;-88
2021/04/10 00:41:53;;;;;;;8.35;7.55;;;7.50;99.90;;;;;;6155100;23;20017;-88
2021/04/10 00:44:19;;;;;;;7.88;7.10;;;7.50;99.90;;;;;;6152731;23;20371;-89
2021/04/10 00:46:46;;;;;;;7.88;7.15;;;7.50;99.90;;;;;;6141458;23;20067;-88
2021/04/10 00:49:13;;;;;;;7.07;6.40;;;7.40;99.90;;;;;;6151963;23;20025;-88
2021/04/10 00:51:39;;;;;;;6.65;6.05;;;7.40;99.90;;;;;;6153942;23;20045;-88
2021/04/10 00:54:06;;;;;;;7.60;6.90;;;7.40;99.90;;;;;;6152751;23;20013;-88
2021/04/10 00:56:33;;;;;;;6.90;6.20;;;7.40;99.90;;;;;;6153158;23;20017;-87
2021/04/10 00:59:00;;;;;;;7.05;6.43;;;7.40;99.90;;;;;;6154270;23;20037;-88
2021/04/10 01:01:27;;;;;;;8.75;6.15;;;7.40;99.90;;;;;;6152822;23;20033;-88
2021/04/10 01:03:54;;;;;;;6.82;6.22;;;7.30;99.90;;;;;;6153737;23;20021;-88
2021/04/10 01:06:20;;;;;;;6.10;5.35;;;7.30;99.90;;;;;;6151586;23;20029;-88
2021/04/10 01:08:47;;;;;;;6.40;5.80;;;7.30;99.90;;;;;;6152447;23;20101;-88
2021/04/10 01:11:53;;;;;;;7.25;5.68;;;7.30;99.90;;;;;;6151305;23;20106;-88
2021/04/10 01:14:44;;;;;;;6.57;5.50;;;7.30;99.90;;;;;;6150058;23;20026;-88
2021/04/10 01:17:16;;;;;;;5.88;4.90;;;7.30;99.90;;;;;;6152338;23;20025;-87
2021/04/10 01:20:14;;;;;;;5.90;5.25;;;7.30;99.90;;;;;;6152809;23;20029;-87
2021/04/10 01:23:11;;;;;;;5.57;5.07;;;7.30;99.90;;;;;;6142273;23;20101;-87
2021/04/10 01:25:52;;;;;;;5.55;5.05;;;7.30;99.90;;;;;;6151732;23;20241;-88
2021/04/10 01:28:58;;;;;;;5.38;4.68;;;7.20;99.90;;;;;;6151447;23;20029;-88
2021/04/10 01:31:33;;;;;;;5.63;4.95;;;7.20;99.90;;;;;;6151768;23;20025;-87
2021/04/10 01:34:04;;;;;;;5.32;4.47;;;7.20;99.90;;;;;;6154553;23;20021;-87
2021/04/10 01:36:34;;;;;;;5.13;4.63;;;7.20;99.90;;;;;;6152680;23;20022;-87
2021/04/10 01:39:06;;;;;;;4.38;3.97;;;7.30;99.90;;;;;;6153527;23;20014;-87
2021/04/10 01:41:35;;;;;;;4.22;3.83;;;7.30;99.90;;;;;;6152981;23;20022;-86
2021/04/10 01:44:05;;;;;;;4.50;4.10;;;7.30;99.90;;;;;;6153365;23;20021;-86
2021/04/10 01:46:32;;;;;;;4.43;4.03;;;7.30;99.90;;;;;;6154021;23;20014;-87
2021/04/10 01:49:00;;;;;;;4.53;4.13;;;7.30;99.90;;;;;;6153718;23;20096;-87
2021/04/10 01:51:27;;;;;;;4.13;3.80;;;7.30;99.90;;;;;;6153155;23;20032;-87
2021/04/10 01:53:54;;;;;;;4.18;3.78;;;7.30;99.90;;;;;;6154462;23;20029;-87
2021/04/10 01:56:22;;;;;;;4.10;3.75;;;7.30;99.90;;;;;;6150538;23;20346;-87
2021/04/10 01:58:49;;;;;;;4.18;3.78;;;7.30;99.90;;;;;;6153848;23;20021;-87
2021/04/10 02:01:17;;;;;;;3.60;3.30;;;7.30;99.90;;;;;;6151893;23;20021;-87
2021/04/10 02:03:47;;;;;;;3.95;3.55;;;7.30;99.90;;;;;;6153538;23;20017;-87
2021/04/10 02:06:15;;;;;;;4.22;3.63;;;7.30;99.90;;;;;;6151565;23;20020;-87
2021/04/10 02:08:43;;;;;;;4.35;3.90;;;7.30;99.90;;;;;;6151628;23;20117;-87
2021/04/10 02:11:12;;;;;;;4.28;3.88;;;7.30;99.90;;;;;;6152710;23;20017;-87
2021/04/10 02:13:39;;;;;;;3.67;3.33;;;7.30;99.90;;;;;;6151973;23;20708;-88
2021/04/10 02:16:06;;;;;;;3.92;3.50;;;7.30;99.90;;;;;;6140704;23;20021;-87
2021/04/10 02:18:37;;;;;;;3.83;3.42;;;7.30;99.90;;;;;;6151936;23;20018;-87
2021/04/10 02:21:08;;;;;;;3.97;3.60;;;7.20;99.90;;;;;;6154677;23;20033;-87
2021/04/10 02:23:41;;;;;;;3.72;3.38;;;7.30;99.90;;;;;;6139684;23;20029;-87
2021/04/10 02:26:09;;;;;;;3.78;3.38;;;7.30;99.90;;;;;;6160040;23;20023;-87
2021/04/10 02:28:36;;;;;;;3.88;3.53;;;7.30;99.90;;;;;;6149738;23;20026;-86
2021/04/10 02:31:04;;;;;;;5.45;3.72;;;7.20;99.90;;;;;;6151203;23;20014;-87
2021/04/10 02:33:41;;;;;;;4.47;3.90;;;7.20;99.90;;;;;;6149528;23;20021;-88
2021/04/10 02:36:13;;;;;;;4.80;4.38;;;7.20;99.90;;;;;;6150305;23;20064;-88
2021/04/10 02:38:41;;;;;;;4.43;4.03;;;7.20;99.90;;;;;;6151527;23;20041;-89
2021/04/10 02:41:13;;;;;;;4.20;3.80;;;7.20;99.90;;;;;;6150209;23;20021;-88
2021/04/10 02:43:48;;;;;;;5.05;4.55;;;7.10;99.90;;;;;;6155113;23;20361;-89
2021/04/10 02:46:15;;;;;;;4.95;4.53;;;7.10;99.90;;;;;;6152166;23;20334;-88
2021/04/10 02:48:55;;;;;;;5.07;4.25;;;7.10;99.90;;;;;;6151719;23;20021;-88
2021/04/10 02:51:28;;;;;;;4.75;4.22;;;7.10;99.90;;;;;;6150091;23;20029;-88
2021/04/10 02:53:55;;;;;;;5.22;4.47;;;7.10;99.90;;;;;;6152861;23;20032;-88
2021/04/10 02:56:25;;;;;;;5.07;4.57;;;7.00;99.90;;;;;;6150368;23;20453;-88
2021/04/10 02:58:53;;;;;;;5.07;4.57;;;7.00;99.90;;;;;;6153114;23;20017;-87
2021/04/10 03:01:20;;;;;;;4.45;4.05;;;7.00;99.90;;;;;;6152933;23;20456;-88
2021/04/10 03:03:49;;;;;;;4.93;4.43;;;7.00;99.90;;;;;;6151297;23;20049;-88
2021/04/10 03:06:16;;;;;;;;;;;7.00;99.90;;;;;;6152670;23;20088;-87
2021/04/10 03:08:47;;;;;;;4.50;4.05;;;7.00;99.90;;;;;;6157010;23;19916;-87
2021/04/10 03:11:16;;;;;;;5.13;4.25;;;6.90;99.90;;;;;;6151597;23;20397;-88
2021/04/10 03:13:43;;;;;;;5.25;4.22;;;6.90;99.90;;;;;;6152152;23;20018;-88
2021/04/10 03:16:10;;;;;;;6.22;5.03;;;6.90;99.90;;;;;;6152272;23;20333;-88
2021/04/10 03:18:38;;;;;;;4.75;4.05;;;6.90;99.90;;;;;;6154800;23;20025;-88
2021/04/10 03:21:05;;;;;;;5.00;4.35;;;6.90;99.90;;;;;;6152541;23;20448;-87
2021/04/10 03:23:35;;;;;;;5.20;4.70;;;6.90;99.90;;;;;;6152354;23;20072;-88
2021/04/10 03:26:03;;;;;;;5.43;4.47;;;6.90;99.90;;;;;;6153096;23;20341;-88
2021/04/10 03:28:31;;;;;;;4.57;4.18;;;6.90;99.90;;;;;;6152760;23;20018;-88
2021/04/10 03:31:02;;;;;;;5.07;4.57;;;6.80;99.90;;;;;;6152953;23;20550;-88
2021/04/10 03:33:36;;;;;;;6.55;4.53;;;6.80;99.90;;;;;;6150926;23;20068;-88
2021/04/10 03:36:04;;;;;;;4.82;4.32;;;6.80;99.90;;;;;;6153271;23;20177;-88
2021/04/10 03:38:32;;;;;;;6.20;5.00;;;6.80;99.90;;;;;;6151087;23;20025;-88
2021/04/10 03:40:59;;;;;;;6.55;4.47;;;6.80;99.90;;;;;;6154742;23;20028;-87
2021/04/10 03:43:26;;;;;;;4.88;4.45;;;6.80;99.90;;;;;;6152066;23;20088;-88
2021/04/10 03:45:52;;;;;;;5.05;4.55;;;6.80;99.90;;;;;;6154379;23;20029;-88
2021/04/10 03:48:18;;;;;;;5.13;4.47;;;6.80;99.90;;;;;;6153403;23;20100;-89
2021/04/10 03:50:45;;;;;;;5.40;4.90;;;6.70;99.90;;;;;;6155298;23;20023;-88
2021/04/10 03:53:11;;;;;;;5.70;5.10;;;6.70;99.90;;;;;;6154202;23;20018;-88
2021/04/10 03:55:38;;;;;;;5.57;4.93;;;6.70;99.90;;;;;;6154950;23;20041;-88
2021/04/10 03:58:05;;;;;;;4.55;4.15;;;6.70;99.90;;;;;;6153148;23;20021;-88
2021/04/10 04:00:31;;;;;;;5.00;4.28;;;6.70;99.90;;;;;;6154171;23;20013;-88
2021/04/10 04:02:58;;;;;;;5.15;4.65;;;6.70;99.90;;;;;;6155965;23;20064;-88
2021/04/10 04:05:25;;;;;;;5.43;4.60;;;6.70;99.90;;;;;;6152777;23;20195;-87
2021/04/10 04:07:52;;;;;;;4.75;4.32;;;6.70;99.90;;;;;;6152247;23;20329;-88
2021/04/10 04:10:18;;;;;;;4.70;4.22;;;6.70;99.90;;;;;;6152488;23;20041;-88
2021/04/10 04:12:45;;;;;;;5.43;4.70;;;6.60;99.90;;;;;;6153122;23;20017;-88
2021/04/10 04:15:12;;;;;;;4.82;4.32;;;6.60;99.90;;;;;;6153121;23;20333;-88
2021/04/10 04:17:39;;;;;;;5.13;4.63;;;6.60;99.90;;;;;;6153479;23;20096;-88
2021/04/10 04:20:06;;;;;;;4.72;4.22;;;6.60;99.90;;;;;;6152608;23;20385;-88
2021/04/10 04:22:33;;;;;;;5.63;4.05;;;6.60;99.90;;;;;;6153092;23;20363;-88
2021/04/10 04:25:07;;;;;;;4.55;4.05;;;6.60;99.90;;;;;;6155093;23;20457;-88
2021/04/10 04:27:37;;;;;;;3.97;3.47;;;6.60;99.90;;;;;;6156516;23;20029;-88
2021/04/10 04:30:06;;;;;;;4.65;4.15;;;6.60;99.90;;;;;;6155132;23;20025;-88
2021/04/10 04:32:32;;;;;;;5.03;3.72;;;6.70;99.90;;;;;;6153296;23;20378;-88
2021/04/10 04:34:59;;;;;;;3.67;3.30;;;6.60;99.90;;;;;;6153115;23;20484;-88
2021/04/10 04:37:26;;;;;;;4.28;3.72;;;6.60;99.90;;;;;;6152720;23;20030;-88
2021/04/10 04:39:52;;;;;;;3.70;3.35;;;6.60;99.90;;;;;;6153246;23;20020;-88
2021/04/10 04:42:19;;;;;;;3.88;3.53;;;6.60;99.90;;;;;;6150712;23;20061;-88
2021/04/10 04:44:45;;;;;;;4.22;3.10;;;6.60;99.90;;;;;;6153348;23;20029;-88
2021/04/10 04:47:12;;;;;;;3.65;3.35;;;6.60;99.90;;;;;;6151593;23;20438;-88
2021/04/10 04:49:39;;;;;;;3.50;2.92;;;6.60;99.90;;;;;;6154300;23;20492;-88
2021/04/10 04:52:06;;;;;;;4.00;3.55;;;6.60;99.90;;;;;;6152953;23;20018;-88
2021/04/10 04:54:32;;;;;;;3.42;3.13;;;6.60;99.90;;;;;;6154963;23;20016;-88
2021/04/10 04:57:03;;;;;;;3.40;3.10;;;6.60;99.90;;;;;;6152335;23;20442;-88
2021/04/10 04:59:30;;;;;;;3.42;3.13;;;6.60;99.90;;;;;;6113222;23;20013;-88
2021/04/10 05:01:56;;;;;;;3.33;3.03;;;6.60;99.90;;;;;;6154360;23;20052;-88
2021/04/10 05:04:23;;;;;;;4.28;3.50;;;6.60;99.90;;;;;;6152037;23;20096;-88
2021/04/10 05:06:50;;;;;;;4.03;3.40;;;6.60;99.90;;;;;;6151935;23;20377;-88
2021/04/10 05:09:16;;;;;;;4.05;3.55;;;6.60;99.90;;;;;;6152129;23;20024;-88
2021/04/10 05:11:43;;;;;;;3.85;3.25;;;6.60;99.90;;;;;;6152807;23;20096;-88
2021/04/10 05:14:10;;;;;;;4.68;3.60;;;6.60;99.90;;;;;;6152779;23;20333;-87
2021/04/10 05:16:37;;;;;;;4.20;3.80;;;6.60;99.90;;;;;;6151842;23;20325;-88
2021/04/10 05:19:03;;;;;;;3.97;3.50;;;6.60;99.90;;;;;;6153787;23;20078;-88
2021/04/10 05:21:30;;;;;;;6.50;3.95;;;6.60;99.90;;;;;;6140885;23;20022;-88
2021/04/10 05:23:56;;;;;;;5.10;3.63;;;6.60;99.90;;;;;;6152071;23;20021;-88
2021/04/10 05:26:24;;;;;;;3.70;3.33;;;6.60;99.90;;;;;;6151586;23;20069;-88
2021/04/10 05:28:51;;;;;;;3.95;3.35;;;6.60;99.90;;;;;;6152725;23;20017;-88
2021/04/10 05:31:17;;;;;;;3.47;2.75;;;6.60;99.90;;;;;;6151911;23;20445;-86
2021/04/10 05:33:44;;;;;;;4.35;3.55;;;6.60;99.90;;;;;;6151940;23;20024;-87
2021/04/10 05:36:11;;;;;;;4.03;3.53;;;6.60;99.90;;;;;;6151614;23;20025;-88
2021/04/10 05:38:37;;;;;;;3.65;3.35;;;6.60;99.90;;;;;;6152066;23;20390;-89
2021/04/10 05:41:07;;;;;;;4.80;3.30;;;6.60;99.90;;;;;;6155659;23;20337;-87
2021/04/10 05:43:33;;;;;;;3.25;2.95;;;6.60;99.90;;;;;;6153961;23;20093;-86
2021/04/10 05:46:02;;;;;;;4.05;2.95;;;6.60;99.90;;;;;;6151857;23;20021;-85
2021/04/10 05:48:28;;;;;;;3.67;3.08;;;6.60;99.90;;;;;;6151666;23;20333;-84
2021/04/10 05:50:55;;;;;;;3.47;3.05;;;6.60;99.90;;;;;;6152150;23;20021;-88
2021/04/10 05:53:22;;;;;;;4.35;3.13;;;6.60;99.90;;;;;;6152555;23;20017;-86
2021/04/10 05:55:48;;;;;;;3.28;2.97;;;6.60;99.90;;;;;;6151320;23;20338;-85
2021/04/10 05:58:15;;;;;;;3.13;2.83;;;6.60;99.90;;;;;;6149880;23;20018;-85
2021/04/10 06:00:41;;;;;;;3.75;2.90;;;6.60;99.90;;;;;;6151839;23;20394;-86
2021/04/10 06:03:08;;;;;;;3.83;3.25;;;6.60;99.90;;;;;;6144375;23;20532;-86
2021/04/10 06:05:35;;;;;;;3.53;2.97;;;6.60;99.90;;;;;;6149269;23;20373;-85
2021/04/10 06:08:01;;;;;;;3.25;2.95;;;6.60;99.90;;;;;;6151468;23;20033;-85
2021/04/10 06:10:28;;;;;;;3.25;2.95;;;6.60;99.90;;;;;;6147639;23;20017;-87
2021/04/10 06:12:54;;;;;;;5.20;3.00;;;6.60;99.90;;;;;;6148209;23;20014;-87
2021/04/10 06:15:21;;;;;;;4.28;3.33;;;6.60;99.90;;;;;;6145794;23;20109;-87
2021/04/10 06:17:47;;;;;;;4.00;2.83;;;6.70;99.90;;;;;;6146764;23;20032;-87
2021/04/10 06:20:16;;;;;;;3.22;2.70;;;6.70;99.90;;;;;;6147782;23;20049;-87
2021/04/10 06:22:43;;;;;;;3.17;2.65;;;6.70;99.90;;;;;;6146052;23;20361;-86
2021/04/10 06:25:09;;;;;;;3.85;2.72;;;6.70;99.90;;;;;;6147052;23;20049;-87
2021/04/10 06:27:36;;;;;;;2.72;2.53;;;6.70;99.90;;;;;;6149230;23;20033;-87
2021/04/10 06:30:05;;;;;;;3.55;3.10;;;6.70;99.90;;;;;;6150345;23;20022;-85
2021/04/10 06:32:31;;;;;;;3.67;2.77;;;6.70;99.90;;;;;;6147417;23;20044;-88
2021/04/10 06:34:58;;;;;;;3.08;2.78;;;6.70;99.90;;;;;;6147544;23;20026;-87
2021/04/10 06:37:24;;;;;;;3.53;2.63;;;6.70;99.90;;;;;;6147826;23;20342;-87
2021/04/10 06:39:51;;;;;;;3.35;3.05;;;6.80;99.90;;;;;;6149392;23;20025;-87
2021/04/10 06:42:20;;;;;;;3.15;2.85;;;6.70;99.90;;;;;;6148001;23;20018;-87
2021/04/10 06:44:46;;;;;;;3.15;2.85;;;6.80;99.90;;;;;;6148142;23;20021;-88
2021/04/10 06:47:17;;;;;;;3.13;2.83;;;6.80;99.90;;;;;;6147127;23;20017;-88
2021/04/10 06:49:45;;;;;;;3.17;2.88;;;6.90;99.90;;;;;;6148671;23;20067;-86
2021/04/10 06:52:16;;;;;;;3.30;3.00;;;6.90;99.90;;;;;;6148082;23;20028;-86
2021/04/10 06:54:45;;;;;;;3.95;2.90;;;6.90;99.90;;;;;;6147117;23;20021;-87
2021/04/10 06:57:21;;;;;;;2.85;2.65;;;6.90;99.90;;;;;;6148889;23;20055;-87
2021/04/10 07:00:01;;;;;;;3.40;3.03;;;7.00;99.90;;;;;;6148917;23;20025;-87
2021/04/10 07:02:31;;;;;;;2.90;2.53;;;7.00;99.90;;;;;;6145553;23;20018;-87
2021/04/10 07:04:58;;;;;;;3.40;2.83;;;7.10;99.90;;;;;;6147818;23;20432;-87
2021/04/10 07:07:26;;;;;;;4.03;3.63;;;7.10;99.90;;;;;;6148765;23;20018;-87
2021/04/10 07:09:53;;;;;;;2.95;2.65;;;7.20;99.90;;;;;;6149520;23;20025;-88
2021/04/10 07:12:20;;;;;;;3.30;2.97;;;7.30;99.90;;;;;;6146280;23;20521;-87
2021/04/10 07:14:47;;;;;;;3.50;3.05;;;7.30;99.90;;;;;;6148351;23;20480;-87
2021/04/10 07:17:14;;;;;;;3.58;2.83;;;7.30;99.90;;;;;;6147631;23;20445;-87
2021/04/10 07:19:41;;;;;;;3.10;2.80;;;7.40;99.90;;;;;;6149690;23;20029;-87
2021/04/10 07:22:12;;;;;;;2.90;2.70;;;7.40;99.90;;;;;;6149207;23;20018;-86
2021/04/10 07:24:50;;;;;;;3.13;2.83;;;7.40;99.90;;;;;;6151449;23;20018;-85
2021/04/10 07:27:19;;;;;;;2.40;2.20;;;7.50;99.90;;;;;;6150960;23;20024;-85
2021/04/10 07:29:48;;;;;;;2.60;2.40;;;7.50;99.90;;;;;;6149577;23;20022;-85
2021/04/10 07:32:34;;;;;;;2.38;2.17;;;7.50;99.90;;;;;;6148957;23;20064;-87
2021/04/10 07:35:03;;;;;;;2.17;1.98;;;7.50;99.90;;;;;;6150384;23;20041;-85
2021/04/10 07:37:34;;;;;;;2.47;2.00;;;7.50;99.90;;;;;;6150103;23;20089;-88
2021/04/10 07:40:06;;;;;;;2.20;2.00;;;7.50;99.90;;;;;;6152530;23;20097;-86
2021/04/10 07:42:39;;;;;;;2.15;1.95;;;7.50;99.90;;;;;;6139359;23;20022;-86
2021/04/10 07:45:22;;;;;;;2.20;2.00;;;7.50;99.90;;;;;;6147846;23;20100;-85
2021/04/10 07:47:50;;;;;;;2.20;2.00;;;7.60;99.90;;;;;;6149159;23;20020;-85
2021/04/10 07:50:27;;;;;;;2.22;1.98;;;7.60;99.90;;;;;;6147830;23;20044;-85
2021/04/10 07:52:54;;;;;;;2.20;1.90;;;7.60;99.90;;;;;;6148276;23;20381;-88
2021/04/10 07:55:39;;;;;;;2.40;1.90;;;7.60;99.90;;;;;;6148958;23;20017;-88
2021/04/10 07:58:24;;;;;;;1.98;1.80;;;7.70;99.90;;;;;;6148996;23;20100;-88
2021/04/10 08:00:53;;;;;;;2.08;1.90;;;7.70;99.90;;;;;;6149250;23;20025;-86
2021/04/10 08:03:33;;;;;;;2.22;1.85;;;7.70;99.90;;;;;;6147723;23;20026;-88
2021/04/10 08:06:05;;;;;;;2.22;2.00;;;7.80;99.90;;;;;;6148691;23;20017;-85
2021/04/10 08:08:34;;;;;;;2.90;2.17;;;7.80;99.90;;;;;;6136951;23;20445;-88
2021/04/10 08:11:05;;;;;;;2.38;2.17;;;7.90;99.90;;;;;;6150536;23;20045;-88
2021/04/10 08:13:33;;;;;;;2.88;2.35;;;8.00;99.90;;;;;;6151593;23;20052;-87
2021/04/10 08:16:17;;;;;;;2.90;2.15;;;8.00;99.90;;;;;;6149048;23;20056;-87
2021/04/10 08:18:49;;;;;;;2.40;2.20;;;8.10;99.90;;;;;;6149985;23;20315;-87
2021/04/10 08:21:39;;;;;;;3.13;2.30;;;8.00;99.90;;;;;;6148225;23;20021;-87
2021/04/10 08:24:27;;;;;;;2.20;2.00;;;8.00;99.90;;;;;;6134391;23;20373;-88
2021/04/10 08:27:02;;;;;;;2.35;2.15;;;8.00;99.90;;;;;;6150548;23;20016;-87
2021/04/10 08:29:30;;;;;;;2.40;2.20;;;8.10;99.90;;;;;;6147299;23;20334;-88
2021/04/10 08:31:57;;;;;;;2.20;2.00;;;8.10;99.90;;;;;;6146803;23;20101;-88
2021/04/10 08:34:26;;;;;;;2.85;2.03;;;8.10;99.90;;;;;;6147473;23;20032;-88
2021/04/10 08:37:02;;;;;;;2.33;2.10;;;8.10;99.90;;;;;;6149367;23;20037;-88
2021/04/10 08:39:35;;;;;;;2.17;1.98;;;8.10;99.90;;;;;;6149006;23;20032;-88
2021/04/10 08:42:04;;;;;;;2.13;1.98;;;8.10;99.90;;;;;;6147782;23;20055;-88
2021/04/10 08:44:33;;;;;;;3.20;2.55;;;8.10;99.90;;;;;;6149051;23;20024;-88
2021/04/10 08:47:00;;;;;;;;;;;8.20;99.90;;;;;;6148620;23;20469;-88
2021/04/10 08:49:33;;;;;;;2.55;2.10;;;8.20;99.90;;;;;;6147657;23;19916;-88
2021/04/10 08:52:12;;;;;;;2.45;2.10;;;8.20;99.90;;;;;;6150225;23;20025;-88
2021/04/10 08:54:41;;;;;;;3.17;2.40;;;8.30;99.90;;;;;;6148203;23;20053;-88
2021/04/10 08:57:12;;;;;;;2.30;2.10;;;8.40;99.90;;;;;;6149135;23;20287;-89
2021/04/10 08:59:47;;;;;;;2.13;1.88;;;8.40;99.90;;;;;;6150332;23;20048;-89
2021/04/10 09:02:17;;;;;;;1.90;1.80;;;8.50;99.90;;;;;;6148674;23;20025;-89
2021/04/10 09:05:02;;;;;;;1.92;1.80;;;8.50;99.90;;;;;;6150177;23;20017;-88
2021/04/10 09:07:46;;;;;;;1.80;1.67;;;8.60;99.90;;;;;;6148597;23;20017;-89
2021/04/10 09:10:27;;;;;;;2.10;1.90;;;8.60;99.90;;;;;;6148731;23;20517;-89
2021/04/10 09:13:05;;;;;;;2.10;1.90;;;8.60;99.90;;;;;;6145336;23;20663;-88
2021/04/10 09:15:33;;;;;;;2.63;1.85;;;8.70;99.90;;;;;;6146496;23;20438;-89
2021/04/10 09:18:01;;;;;;;2.20;1.70;;;8.70;99.90;;;;;;6145792;23;20354;-89
2021/04/10 09:20:43;;;;;;;2.22;1.70;;;8.80;99.90;;;;;;6146834;23;20052;-88
2021/04/10 09:23:29;;;;;;;2.65;1.50;;;8.80;99.90;;;;;;6149569;23;20035;-88
2021/04/10 09:26:09;;;;;;;2.35;1.90;;;8.80;99.90;;;;;;6148746;23;20048;-89
2021/04/10 09:28:54;;;;;;;2.20;1.73;;;8.90;99.90;;;;;;6152700;23;20025;-88
2021/04/10 09:31:42;;;;;;;1.35;1.25;;;9.00;99.90;;;;;;6136386;23;20634;-87
2021/04/10 09:34:43;;;;;;;3.08;1.60;;;9.10;99.90;;;;;;6146903;23;20021;-89
2021/04/10 09:37:20;;;;;;;1.85;1.50;;;9.10;99.90;;;;;;6148110;23;20100;-89
2021/04/10 09:39:51;;;;;;;2.47;1.50;;;9.20;99.90;;;;;;6140118;23;20120;-89
2021/04/10 09:45:16;;;;;;;2.75;2.10;;;9.40;99.90;;;;;;6147611;23;20021;-88
2021/04/10 09:47:55;;;;;;;4.15;2.67;;;9.50;99.90;;;;;;6152577;23;20017;-91
2021/04/10 09:50:36;;;;;;;4.20;3.10;;;9.50;99.90;;;;;;6164167;23;20021;-87
2021/04/10 09:53:18;;;;;;;4.15;2.95;;;9.50;99.90;;;;;;6147215;23;20108;-89
2021/04/10 09:55:47;;;;;;;2.65;2.40;;;9.50;99.90;;;;;;6151386;23;20025;-86
2021/04/10 09:58:19;;;;;;;3.60;2.72;;;9.50;99.90;;;;;;6147156;23;20045;-88
2021/04/10 10:00:47;;;;;;;3.85;2.60;;;9.40;99.90;;;;;;6139272;23;20102;-85
2021/04/10 10:03:18;;;;;;;4.32;2.83;;;9.40;99.90;;;;;;6152039;23;20018;-86
2021/04/10 10:06:14;;;;;;;4.25;2.80;;;9.40;99.90;;;;;;6153385;23;20036;-87
2021/04/10 10:08:43;;;;;;;4.40;3.08;;;9.50;99.90;;;;;;6142250;23;20101;-85
2021/04/10 10:11:34;;;;;;;2.55;2.35;;;9.50;99.90;;;;;;6137970;23;20571;-96
2021/04/10 10:14:01;;;;;;;6.38;2.58;;;9.60;99.90;;;;;;6137823;23;20021;-90
2021/04/10 10:16:37;;;;;;;2.78;2.58;;;9.70;99.90;;;;;;6130116;23;20033;-90
2021/04/10 10:19:23;;;;;;;6.63;2.70;;;9.70;99.90;;;;;;6168018;23;20036;-94
2021/04/10 10:21:53;;;;;;;3.05;2.50;;;9.70;99.90;;;;;;6151686;23;20022;-89
2021/04/10 10:24:23;;;;;;;3.47;2.67;;;9.70;99.90;;;;;;6136093;23;20014;-90
2021/04/10 10:26:50;;;;;;;3.08;2.78;;;9.60;99.90;;;;;;6139896;23;20330;-87
2021/04/10 10:29:17;;;;;;;3.67;2.55;;;9.60;99.90;;;;;;6150511;23;20464;-89
2021/04/10 10:31:53;;;;;;;4.82;2.50;;;9.40;99.90;;;;;;6151393;23;20017;-87
2021/04/10 10:34:24;;;;;;;3.90;2.40;;;9.40;99.90;;;;;;6150600;23;20048;-87
2021/04/10 10:36:52;;;;;;;3.75;3.00;;;9.50;99.90;;;;;;6152587;23;20033;-83
2021/04/10 10:39:29;;;;;;;3.63;2.90;;;9.50;99.90;;;;;;6151511;23;20088;-87
2021/04/10 10:42:05;;;;;;;3.22;2.63;;;9.60;99.90;;;;;;6157143;23;20101;-88
2021/04/10 10:44:36;;;;;;;3.13;2.42;;;9.70;99.90;;;;;;6151989;23;20024;-85
2021/04/10 10:47:09;;;;;;;2.67;2.25;;;9.80;99.90;;;;;;6151989;23;20521;-86
2021/04/10 10:49:37;;;;;;;2.35;2.15;;;10.00;99.90;;;;;;6152429;23;20041;-90
2021/04/10 10:52:16;;;;;;;2.50;2.28;;;10.10;99.90;;;;;;6139281;23;20026;-88
2021/04/10 10:54:42;;;;;;;2.17;1.95;;;10.10;99.90;;;;;;6153896;23;20018;-86
2021/04/10 10:57:15;;;;;;;;;;;10.10;99.90;;;;;;6152023;23;20386;-90
2021/04/10 10:59:56;;;;;;;2.10;1.80;;;10.00;99.90;;;;;;6145093;23;19921;-89
2021/04/10 11:02:28;;;;;;;2.17;1.85;;;9.90;99.90;;;;;;6154622;23;20022;-89
2021/04/10 11:04:55;;;;;;;2.50;1.80;;;10.00;99.90;;;;;;6142223;23;20021;-89
2021/04/10 11:07:31;;;;;;;2.70;2.00;;;10.00;99.90;;;;;;6153644;23;20022;-89
2021/04/10 11:09:59;;;;;;;2.80;2.10;;;10.10;99.90;;;;;;6139088;23;20040;-90
2021/04/10 11:12:27;;;;;;;2.22;2.00;;;10.10;99.90;;;;;;6152036;23;20052;-90
2021/04/10 11:14:59;;;;;;;3.33;2.30;;;9.90;99.90;;;;;;6140796;23;20345;-89
2021/04/10 11:17:33;;;;;;;5.45;2.50;;;9.90;99.90;;;;;;6152488;23;20023;-90
2021/04/10 11:20:03;;;;;;;3.90;2.60;;;9.80;99.90;;;;;;6141410;23;20044;-89
2021/04/10 11:22:51;;;;;;;;;;;;;;;;;;;;;
2021/04/10 11:25:54;;;;;;;3.40;2.20;;;9.80;99.90;;;;;;6165334;23;20338;-89
2021/04/10 11:28:29;;;;;;;5.00;2.53;;;9.80;99.90;;;;;;6154372;23;20060;-89
2021/04/10 11:31:07;;;;;;;3.30;2.28;;;9.80;99.90;;;;;;6152949;23;20075;-89
2021/04/10 11:33:37;;;;;;;4.15;2.75;;;9.80;99.90;;;;;;6142133;23;20049;-89
2021/04/10 11:36:05;;;;;;;3.85;2.33;;;9.80;99.90;;;;;;6152539;23;20068;-90
2021/04/10 11:38:34;;;;;;;4.05;2.88;;;9.80;99.90;;;;;;6153691;23;20010;-90
2021/04/10 11:41:01;;;;;;;;;;;9.90;99.90;;;;;;6155461;23;20017;-90
2021/04/10 11:43:29;;;;;;;3.90;2.92;;;9.90;99.90;;;;;;6139148;23;20305;-89
2021/04/10 11:45:56;;;;;;;3.38;3.00;;;10.00;99.90;;;;;;6154498;23;20068;-90
2021/04/10 11:48:25;;;;;;;4.05;2.78;;;10.00;99.90;;;;;;6152680;23;20092;-90
2021/04/10 11:50:57;;;;;;;3.13;2.65;;;10.00;99.90;;;;;;6156110;23;20338;-89
2021/04/10 11:53:34;;;;;;;3.90;2.97;;;10.00;99.90;;;;;;6164392;23;20798;-89
2021/04/10 11:56:23;;;;;;;4.72;2.75;;;10.00;99.90;;;;;;6151364;23;20022;-89
2021/04/10 11:59:07;;;;;;;4.93;2.88;;;10.00;99.90;;;;;;6151572;23;20025;-89
2021/04/10 12:01:49;;;;;;;2.90;2.60;;;10.10;99.90;;;;;;6143789;23;20025;-89
2021/04/10 12:04:25;;;;;;;4.30;2.55;;;10.20;99.90;;;;;;6152165;23;20045;-89
2021/04/10 12:07:04;;;;;;;3.55;2.70;;;10.20;99.90;;;;;;6138984;23;20097;-89
2021/04/10 12:09:38;;;;;;;3.13;2.83;;;10.20;99.90;;;;;;6153091;23;20021;-90
2021/04/10 12:12:07;;;;;;;3.70;2.40;;;10.20;99.90;;;;;;6151789;23;20076;-89
2021/04/10 12:14:35;;;;;;;4.15;2.67;;;10.10;99.90;;;;;;6153636;23;20097;-91
2021/04/10 12:17:03;;;;;;;6.30;2.38;;;10.10;99.90;;;;;;6130913;23;20442;-90
2021/04/10 12:19:37;;;;;;;3.47;2.55;;;10.10;99.90;;;;;;6141674;23;20026;-96
2021/04/10 12:22:14;;;;;;;2.95;2.42;;;10.10;99.90;;;;;;6139110;23;20088;-90
2021/04/10 12:24:46;;;;;;;3.25;2.65;;;10.10;99.90;;;;;;6124790;23;20021;-89
2021/04/10 12:27:27;;;;;;;4.03;2.63;;;10.10;99.90;;;;;;6117322;23;20059;-95
2021/04/10 12:30:08;;;;;;;;;;;;;;;;;;;;;
2021/04/10 12:33:09;;;;;;;4.95;2.60;;;9.90;99.90;;;;;;6125550;23;20048;-93
2021/04/10 12:35:50;;;;;;;2.92;2.63;;;9.80;99.90;;;;;;6086951;23;20418;-88
2021/04/10 12:38:17;;;;;;;2.92;2.65;;;9.70;99.90;;;;;;6138078;23;20079;-90
2021/04/10 12:40:46;;;;;;;4.25;2.72;;;9.70;99.90;;;;;;6140095;23;20072;-90
2021/04/10 12:43:28;;;;;;;;;;;;;;;;;;;;;
2021/04/10 12:46:28;;;;;;;6.22;2.63;;;9.60;99.90;;;;;;6069823;23;20507;-94
2021/04/10 12:48:57;;;;;;;3.22;2.60;;;9.70;99.90;;;;;;6026544;23;20580;-89
2021/04/10 12:51:27;;;;;;;;;;;9.70;99.90;;;;;;5999143;23;20036;-96
2021/04/10 12:54:19;;;;;;;2.85;2.53;;;9.70;99.90;;;;;;6031262;23;19923;-95
2021/04/10 12:56:54;;;;;;;3.30;2.60;;;9.70;99.90;;;;;;5941547;23;20084;-94
2021/04/10 12:59:21;;;;;;;3.15;2.65;;;9.60;99.90;;;;;;6005252;23;20030;-90
2021/04/10 13:01:56;;;;;;;4.25;2.45;;;9.60;99.90;;;;;;6022075;23;20026;-94
2021/04/10 13:04:36;;;;;;;3.78;2.80;;;9.60;99.90;;;;;;6117991;23;20018;-90
2021/04/10 13:07:04;;;;;;;3.17;2.72;;;9.60;99.90;;;;;;6165819;23;20017;-88
2021/04/10 13:09:49;;;;;;;7.40;3.92;;;9.50;99.90;;;;;;6163881;23;20042;-93
2021/04/10 13:12:30;;;;;;;;;;;;;;;;;;;;;
2021/04/10 13:18:48;;;;;;;5.63;3.88;;;9.60;99.90;;;;;;6144653;23;20032;-93
2021/04/10 13:21:14;;;;;;;4.50;3.28;;;9.60;99.90;;;;;;6137325;23;20027;-92
2021/04/10 13:23:42;;;;;;;4.95;3.63;;;9.60;99.90;;;;;;6174483;23;20025;-91
2021/04/10 13:26:10;;;;;;;4.40;3.70;;;9.70;99.90;;;;;;6151500;23;20109;-88
2021/04/10 13:28:37;;;;;;;5.55;3.70;;;9.90;99.90;;;;;;6142453;23;20108;-87
2021/04/10 13:31:06;;;;;;;4.70;3.72;;;10.10;99.90;;;;;;6139518;23;20088;-92